sensor_id;sensor_type;location;lat;lon;timestamp;P1;durP1;ratioP1;P2;durP2;ratioP2
61681;SDS011;47577;43.610;25.010;2022-08-21T00:02:24;8.80;;;5.20;;
61681;SDS011;47577;43.610;25.010;2022-08-21T00:04:52;7.30;;;4.35;;
61681;SDS011;47577;43.610;25.010;2022-08-21T00:07:18;7.18;;;4.70;;
61681;SDS011;47577;43.610;25.010;2022-08-21T00:09:45;7.00;;;4.20;;
61681;SDS011;47577;43.610;25.010;2022-08-21T00:12:11;8.55;;;4.50;;
61681;SDS011;47577;43.610;25.010;2022-08-21T00:14:37;8.73;;;5.13;;
61681;SDS011;47577;43.610;25.010;2022-08-21T00:17:03;6.07;;;5.03;;
61681;SDS011;47577;43.610;25.010;2022-08-21T00:19:30;6.93;;;5.43;;
61681;SDS011;47577;43.610;25.010;2022-08-21T00:24:22;8.40;;;4.27;;
61681;SDS011;47577;43.610;25.010;2022-08-21T00:26:49;8.15;;;3.97;;
61681;SDS011;47577;43.610;25.010;2022-08-21T00:29:15;7.00;;;3.53;;
61681;SDS011;47577;43.610;25.010;2022-08-21T00:31:41;8.48;;;3.97;;
61681;SDS011;47577;43.610;25.010;2022-08-21T00:34:08;9.63;;;3.72;;
61681;SDS011;47577;43.610;25.010;2022-08-21T00:36:34;6.57;;;3.53;;
61681;SDS011;47577;43.610;25.010;2022-08-21T00:39:01;8.93;;;4.47;;
61681;SDS011;47577;43.610;25.010;2022-08-21T00:41:29;7.05;;;3.85;;
61681;SDS011;47577;43.610;25.010;2022-08-21T00:43:55;11.25;;;4.15;;
61681;SDS011;47577;43.610;25.010;2022-08-21T00:46:21;5.23;;;3.50;;
61681;SDS011;47577;43.610;25.010;2022-08-21T00:48:47;17.58;;;6.40;;
61681;SDS011;47577;43.610;25.010;2022-08-21T00:51:14;8.88;;;4.22;;
61681;SDS011;47577;43.610;25.010;2022-08-21T00:53:48;8.30;;;4.28;;
61681;SDS011;47577;43.610;25.010;2022-08-21T00:56:16;14.80;;;4.93;;
61681;SDS011;47577;43.610;25.010;2022-08-21T01:01:10;11.37;;;3.60;;
61681;SDS011;47577;43.610;25.010;2022-08-21T01:03:36;4.72;;;3.47;;
61681;SDS011;47577;43.610;25.010;2022-08-21T01:06:02;7.63;;;3.33;;
61681;SDS011;47577;43.610;25.010;2022-08-21T01:08:30;10.35;;;4.47;;
61681;SDS011;47577;43.610;25.010;2022-08-21T01:13:23;9.30;;;4.88;;
61681;SDS011;47577;43.610;25.010;2022-08-21T01:15:50;8.73;;;4.50;;
61681;SDS011;47577;43.610;25.010;2022-08-21T01:18:19;8.60;;;4.70;;
61681;SDS011;47577;43.610;25.010;2022-08-21T01:23:35;7.20;;;3.97;;
61681;SDS011;47577;43.610;25.010;2022-08-21T01:26:03;8.80;;;4.22;;
61681;SDS011;47577;43.610;25.010;2022-08-21T01:28:30;8.85;;;4.40;;
61681;SDS011;47577;43.610;25.010;2022-08-21T01:31:00;10.75;;;4.03;;
61681;SDS011;47577;43.610;25.010;2022-08-21T01:33:28;11.45;;;4.28;;
61681;SDS011;47577;43.610;25.010;2022-08-21T01:35:54;11.80;;;4.75;;
61681;SDS011;47577;43.610;25.010;2022-08-21T01:38:19;14.95;;;4.57;;
61681;SDS011;47577;43.610;25.010;2022-08-21T01:40:45;9.15;;;3.70;;
61681;SDS011;47577;43.610;25.010;2022-08-21T01:43:11;13.05;;;4.32;;
61681;SDS011;47577;43.610;25.010;2022-08-21T01:45:37;10.32;;;4.25;;
61681;SDS011;47577;43.610;25.010;2022-08-21T01:48:02;13.55;;;4.85;;
61681;SDS011;47577;43.610;25.010;2022-08-21T01:50:28;9.10;;;4.35;;
61681;SDS011;47577;43.610;25.010;2022-08-21T01:52:54;12.75;;;4.75;;
61681;SDS011;47577;43.610;25.010;2022-08-21T01:55:21;10.15;;;4.50;;
61681;SDS011;47577;43.610;25.010;2022-08-21T01:57:47;7.80;;;4.25;;
61681;SDS011;47577;43.610;25.010;2022-08-21T02:00:14;11.60;;;4.72;;
61681;SDS011;47577;43.610;25.010;2022-08-21T02:02:43;9.98;;;4.15;;
61681;SDS011;47577;43.610;25.010;2022-08-21T02:05:09;10.80;;;3.97;;
61681;SDS011;47577;43.610;25.010;2022-08-21T02:07:46;13.10;;;4.78;;
61681;SDS011;47577;43.610;25.010;2022-08-21T02:10:21;8.18;;;5.25;;
61681;SDS011;47577;43.610;25.010;2022-08-21T02:12:49;13.50;;;4.72;;
61681;SDS011;47577;43.610;25.010;2022-08-21T02:15:15;12.75;;;4.13;;
61681;SDS011;47577;43.610;25.010;2022-08-21T02:17:42;9.73;;;4.40;;
61681;SDS011;47577;43.610;25.010;2022-08-21T02:20:12;9.40;;;4.30;;
61681;SDS011;47577;43.610;25.010;2022-08-21T02:22:42;9.45;;;4.20;;
61681;SDS011;47577;43.610;25.010;2022-08-21T02:25:08;7.82;;;4.18;;
61681;SDS011;47577;43.610;25.010;2022-08-21T02:27:38;13.75;;;4.70;;
61681;SDS011;47577;43.610;25.010;2022-08-21T02:30:10;9.65;;;4.30;;
61681;SDS011;47577;43.610;25.010;2022-08-21T02:32:37;9.80;;;5.13;;
61681;SDS011;47577;43.610;25.010;2022-08-21T02:35:03;8.70;;;4.43;;
61681;SDS011;47577;43.610;25.010;2022-08-21T02:37:29;9.45;;;5.03;;
61681;SDS011;47577;43.610;25.010;2022-08-21T02:39:55;8.65;;;4.70;;
61681;SDS011;47577;43.610;25.010;2022-08-21T02:42:21;10.88;;;4.78;;
61681;SDS011;47577;43.610;25.010;2022-08-21T02:44:47;10.68;;;4.72;;
61681;SDS011;47577;43.610;25.010;2022-08-21T02:47:13;7.78;;;4.82;;
61681;SDS011;47577;43.610;25.010;2022-08-21T02:49:39;8.25;;;4.75;;
61681;SDS011;47577;43.610;25.010;2022-08-21T02:52:05;8.13;;;5.15;;
61681;SDS011;47577;43.610;25.010;2022-08-21T02:54:31;9.98;;;5.10;;
61681;SDS011;47577;43.610;25.010;2022-08-21T02:56:57;7.13;;;5.15;;
61681;SDS011;47577;43.610;25.010;2022-08-21T02:59:22;8.50;;;5.28;;
61681;SDS011;47577;43.610;25.010;2022-08-21T03:01:48;7.13;;;5.00;;
61681;SDS011;47577;43.610;25.010;2022-08-21T03:04:14;10.20;;;5.22;;
61681;SDS011;47577;43.610;25.010;2022-08-21T03:06:40;5.93;;;4.63;;
61681;SDS011;47577;43.610;25.010;2022-08-21T03:09:05;6.93;;;4.70;;
61681;SDS011;47577;43.610;25.010;2022-08-21T03:11:31;9.98;;;5.25;;
61681;SDS011;47577;43.610;25.010;2022-08-21T03:13:56;8.82;;;4.95;;
61681;SDS011;47577;43.610;25.010;2022-08-21T03:16:22;9.65;;;5.32;;
61681;SDS011;47577;43.610;25.010;2022-08-21T03:18:48;9.38;;;5.78;;
61681;SDS011;47577;43.610;25.010;2022-08-21T03:21:13;11.48;;;5.97;;
61681;SDS011;47577;43.610;25.010;2022-08-21T03:23:39;8.63;;;5.63;;
61681;SDS011;47577;43.610;25.010;2022-08-21T03:26:07;9.80;;;5.97;;
61681;SDS011;47577;43.610;25.010;2022-08-21T03:28:32;10.32;;;5.15;;
61681;SDS011;47577;43.610;25.010;2022-08-21T03:30:58;13.38;;;6.25;;
61681;SDS011;47577;43.610;25.010;2022-08-21T03:33:24;10.68;;;5.10;;
61681;SDS011;47577;43.610;25.010;2022-08-21T03:35:58;8.70;;;5.88;;
61681;SDS011;47577;43.610;25.010;2022-08-21T03:38:27;10.60;;;6.25;;
61681;SDS011;47577;43.610;25.010;2022-08-21T03:40:55;10.65;;;5.53;;
61681;SDS011;47577;43.610;25.010;2022-08-21T03:43:21;7.32;;;5.75;;
61681;SDS011;47577;43.610;25.010;2022-08-21T03:45:47;6.38;;;5.10;;
61681;SDS011;47577;43.610;25.010;2022-08-21T03:48:12;13.05;;;6.28;;
61681;SDS011;47577;43.610;25.010;2022-08-21T03:50:40;10.40;;;5.95;;
61681;SDS011;47577;43.610;25.010;2022-08-21T03:53:08;13.07;;;6.25;;
61681;SDS011;47577;43.610;25.010;2022-08-21T03:55:36;9.00;;;5.82;;
61681;SDS011;47577;43.610;25.010;2022-08-21T03:58:02;17.17;;;6.45;;
61681;SDS011;47577;43.610;25.010;2022-08-21T04:00:28;8.43;;;5.38;;
61681;SDS011;47577;43.610;25.010;2022-08-21T04:02:53;8.75;;;5.45;;
61681;SDS011;47577;43.610;25.010;2022-08-21T04:05:19;8.18;;;6.15;;
61681;SDS011;47577;43.610;25.010;2022-08-21T04:07:58;12.90;;;6.78;;
61681;SDS011;47577;43.610;25.010;2022-08-21T04:10:27;14.02;;;6.00;;
61681;SDS011;47577;43.610;25.010;2022-08-21T04:12:56;12.52;;;6.28;;
61681;SDS011;47577;43.610;25.010;2022-08-21T04:15:22;11.63;;;5.97;;
61681;SDS011;47577;43.610;25.010;2022-08-21T04:17:49;21.25;;;6.75;;
61681;SDS011;47577;43.610;25.010;2022-08-21T04:20:16;13.95;;;6.53;;
61681;SDS011;47577;43.610;25.010;2022-08-21T04:22:43;7.07;;;6.28;;
61681;SDS011;47577;43.610;25.010;2022-08-21T04:25:09;7.77;;;5.83;;
61681;SDS011;47577;43.610;25.010;2022-08-21T04:27:36;10.30;;;6.13;;
61681;SDS011;47577;43.610;25.010;2022-08-21T04:30:02;12.88;;;5.68;;
61681;SDS011;47577;43.610;25.010;2022-08-21T04:32:29;12.20;;;6.38;;
61681;SDS011;47577;43.610;25.010;2022-08-21T04:35:02;10.07;;;6.05;;
61681;SDS011;47577;43.610;25.010;2022-08-21T04:37:34;8.02;;;6.05;;
61681;SDS011;47577;43.610;25.010;2022-08-21T04:40:02;11.02;;;6.25;;
61681;SDS011;47577;43.610;25.010;2022-08-21T04:42:30;8.63;;;6.68;;
61681;SDS011;47577;43.610;25.010;2022-08-21T04:44:58;9.95;;;6.40;;
61681;SDS011;47577;43.610;25.010;2022-08-21T04:47:24;9.77;;;6.43;;
61681;SDS011;47577;43.610;25.010;2022-08-21T04:49:50;14.13;;;6.03;;
61681;SDS011;47577;43.610;25.010;2022-08-21T04:52:17;8.93;;;6.45;;
61681;SDS011;47577;43.610;25.010;2022-08-21T04:54:46;12.40;;;6.65;;
61681;SDS011;47577;43.610;25.010;2022-08-21T04:57:17;19.55;;;7.63;;
61681;SDS011;47577;43.610;25.010;2022-08-21T04:59:48;8.90;;;6.97;;
61681;SDS011;47577;43.610;25.010;2022-08-21T05:02:16;10.48;;;7.47;;
61681;SDS011;47577;43.610;25.010;2022-08-21T05:04:45;14.82;;;7.32;;
61681;SDS011;47577;43.610;25.010;2022-08-21T05:07:19;9.25;;;6.10;;
61681;SDS011;47577;43.610;25.010;2022-08-21T05:09:48;13.80;;;7.43;;
61681;SDS011;47577;43.610;25.010;2022-08-21T05:12:14;11.18;;;7.10;;
61681;SDS011;47577;43.610;25.010;2022-08-21T05:14:40;14.07;;;7.65;;
61681;SDS011;47577;43.610;25.010;2022-08-21T05:17:07;18.77;;;7.65;;
61681;SDS011;47577;43.610;25.010;2022-08-21T05:19:33;7.85;;;6.43;;
61681;SDS011;47577;43.610;25.010;2022-08-21T05:21:59;10.70;;;7.18;;
61681;SDS011;47577;43.610;25.010;2022-08-21T05:24:26;10.50;;;6.75;;
61681;SDS011;47577;43.610;25.010;2022-08-21T05:26:52;11.63;;;7.18;;
61681;SDS011;47577;43.610;25.010;2022-08-21T05:29:18;9.63;;;6.45;;
61681;SDS011;47577;43.610;25.010;2022-08-21T05:31:44;8.02;;;6.57;;
61681;SDS011;47577;43.610;25.010;2022-08-21T05:34:10;11.00;;;7.55;;
61681;SDS011;47577;43.610;25.010;2022-08-21T05:36:36;9.50;;;6.93;;
61681;SDS011;47577;43.610;25.010;2022-08-21T05:39:02;11.32;;;7.15;;
61681;SDS011;47577;43.610;25.010;2022-08-21T05:41:28;10.98;;;7.45;;
61681;SDS011;47577;43.610;25.010;2022-08-21T05:43:55;9.57;;;7.05;;
61681;SDS011;47577;43.610;25.010;2022-08-21T05:46:21;11.27;;;6.68;;
61681;SDS011;47577;43.610;25.010;2022-08-21T05:48:46;10.52;;;7.13;;
61681;SDS011;47577;43.610;25.010;2022-08-21T05:51:13;9.55;;;6.40;;
61681;SDS011;47577;43.610;25.010;2022-08-21T05:53:39;7.68;;;6.63;;
61681;SDS011;47577;43.610;25.010;2022-08-21T05:56:07;12.18;;;7.35;;
61681;SDS011;47577;43.610;25.010;2022-08-21T05:58:33;8.23;;;6.37;;
61681;SDS011;47577;43.610;25.010;2022-08-21T06:00:59;8.13;;;7.03;;
61681;SDS011;47577;43.610;25.010;2022-08-21T06:03:27;10.05;;;6.72;;
61681;SDS011;47577;43.610;25.010;2022-08-21T06:05:59;8.88;;;6.43;;
61681;SDS011;47577;43.610;25.010;2022-08-21T06:08:26;9.13;;;6.18;;
61681;SDS011;47577;43.610;25.010;2022-08-21T06:13:19;9.90;;;6.47;;
61681;SDS011;47577;43.610;25.010;2022-08-21T06:15:46;11.15;;;6.70;;
61681;SDS011;47577;43.610;25.010;2022-08-21T06:18:11;15.07;;;5.57;;
61681;SDS011;47577;43.610;25.010;2022-08-21T06:20:37;20.90;;;7.15;;
61681;SDS011;47577;43.610;25.010;2022-08-21T06:23:04;7.95;;;5.57;;
61681;SDS011;47577;43.610;25.010;2022-08-21T06:25:30;10.82;;;6.10;;
61681;SDS011;47577;43.610;25.010;2022-08-21T06:28:06;7.10;;;5.68;;
61681;SDS011;47577;43.610;25.010;2022-08-21T06:30:33;9.07;;;5.93;;
61681;SDS011;47577;43.610;25.010;2022-08-21T06:33:01;6.95;;;5.55;;
61681;SDS011;47577;43.610;25.010;2022-08-21T06:35:28;8.18;;;6.22;;
61681;SDS011;47577;43.610;25.010;2022-08-21T06:37:54;8.73;;;5.85;;
61681;SDS011;47577;43.610;25.010;2022-08-21T06:40:20;8.80;;;5.47;;
61681;SDS011;47577;43.610;25.010;2022-08-21T06:42:46;8.57;;;6.32;;
61681;SDS011;47577;43.610;25.010;2022-08-21T06:45:12;8.80;;;5.78;;
61681;SDS011;47577;43.610;25.010;2022-08-21T06:47:38;6.53;;;5.40;;
61681;SDS011;47577;43.610;25.010;2022-08-21T06:50:04;9.38;;;5.40;;
61681;SDS011;47577;43.610;25.010;2022-08-21T06:52:33;6.95;;;5.93;;
61681;SDS011;47577;43.610;25.010;2022-08-21T06:54:59;11.05;;;5.57;;
61681;SDS011;47577;43.610;25.010;2022-08-21T06:57:25;7.55;;;5.53;;
61681;SDS011;47577;43.610;25.010;2022-08-21T06:59:51;8.00;;;5.95;;
61681;SDS011;47577;43.610;25.010;2022-08-21T07:02:20;8.90;;;6.00;;
61681;SDS011;47577;43.610;25.010;2022-08-21T07:04:45;7.68;;;6.32;;
61681;SDS011;47577;43.610;25.010;2022-08-21T07:07:11;8.38;;;5.63;;
61681;SDS011;47577;43.610;25.010;2022-08-21T07:09:37;7.30;;;5.65;;
61681;SDS011;47577;43.610;25.010;2022-08-21T07:12:04;8.25;;;6.03;;
61681;SDS011;47577;43.610;25.010;2022-08-21T07:14:30;9.30;;;6.15;;
61681;SDS011;47577;43.610;25.010;2022-08-21T07:16:56;8.30;;;6.22;;
61681;SDS011;47577;43.610;25.010;2022-08-21T07:19:22;11.65;;;6.15;;
61681;SDS011;47577;43.610;25.010;2022-08-21T07:21:48;11.77;;;6.20;;
61681;SDS011;47577;43.610;25.010;2022-08-21T07:24:14;12.95;;;6.80;;
61681;SDS011;47577;43.610;25.010;2022-08-21T07:26:40;7.90;;;5.00;;
61681;SDS011;47577;43.610;25.010;2022-08-21T07:29:06;10.03;;;5.27;;
61681;SDS011;47577;43.610;25.010;2022-08-21T07:31:31;6.32;;;4.97;;
61681;SDS011;47577;43.610;25.010;2022-08-21T07:34:00;11.15;;;5.45;;
61681;SDS011;47577;43.610;25.010;2022-08-21T07:36:26;11.13;;;5.32;;
61681;SDS011;47577;43.610;25.010;2022-08-21T07:38:52;8.18;;;5.85;;
61681;SDS011;47577;43.610;25.010;2022-08-21T07:41:18;11.05;;;5.28;;
61681;SDS011;47577;43.610;25.010;2022-08-21T07:43:50;8.30;;;5.50;;
61681;SDS011;47577;43.610;25.010;2022-08-21T07:46:16;10.95;;;6.57;;
61681;SDS011;47577;43.610;25.010;2022-08-21T07:48:41;9.30;;;6.07;;
61681;SDS011;47577;43.610;25.010;2022-08-21T07:51:10;8.30;;;5.80;;
61681;SDS011;47577;43.610;25.010;2022-08-21T08:09:04;7.93;;;5.78;;
61681;SDS011;47577;43.610;25.010;2022-08-21T08:11:29;11.68;;;7.78;;
61681;SDS011;47577;43.610;25.010;2022-08-21T08:13:56;12.67;;;9.03;;
61681;SDS011;47577;43.610;25.010;2022-08-21T08:16:23;28.63;;;19.05;;
61681;SDS011;47577;43.610;25.010;2022-08-21T08:18:48;12.20;;;8.90;;
61681;SDS011;47577;43.610;25.010;2022-08-21T08:21:15;10.27;;;6.60;;
61681;SDS011;47577;43.610;25.010;2022-08-21T08:23:41;15.85;;;7.30;;
61681;SDS011;47577;43.610;25.010;2022-08-21T08:26:09;13.60;;;6.78;;
61681;SDS011;47577;43.610;25.010;2022-08-21T08:28:34;10.13;;;6.65;;
61681;SDS011;47577;43.610;25.010;2022-08-21T08:31:00;9.98;;;7.07;;
61681;SDS011;47577;43.610;25.010;2022-08-21T08:33:26;9.07;;;6.45;;
61681;SDS011;47577;43.610;25.010;2022-08-21T08:35:52;10.80;;;6.63;;
61681;SDS011;47577;43.610;25.010;2022-08-21T08:38:19;8.18;;;5.55;;
61681;SDS011;47577;43.610;25.010;2022-08-21T08:43:16;9.90;;;6.72;;
61681;SDS011;47577;43.610;25.010;2022-08-21T08:45:44;8.98;;;6.38;;
61681;SDS011;47577;43.610;25.010;2022-08-21T08:48:14;9.40;;;6.00;;
61681;SDS011;47577;43.610;25.010;2022-08-21T08:51:04;10.32;;;6.53;;
61681;SDS011;47577;43.610;25.010;2022-08-21T08:53:37;9.98;;;6.13;;
61681;SDS011;47577;43.610;25.010;2022-08-21T08:56:29;7.97;;;5.63;;
61681;SDS011;47577;43.610;25.010;2022-08-21T08:59:00;10.32;;;5.40;;
61681;SDS011;47577;43.610;25.010;2022-08-21T09:01:33;8.20;;;5.55;;
61681;SDS011;47577;43.610;25.010;2022-08-21T09:03:59;9.50;;;6.15;;
61681;SDS011;47577;43.610;25.010;2022-08-21T09:06:34;7.68;;;5.55;;
61681;SDS011;47577;43.610;25.010;2022-08-21T09:17:59;8.65;;;5.07;;
61681;SDS011;47577;43.610;25.010;2022-08-21T09:20:37;10.52;;;6.75;;
61681;SDS011;47577;43.610;25.010;2022-08-21T09:23:25;6.93;;;4.95;;
61681;SDS011;47577;43.610;25.010;2022-08-21T09:26:02;8.60;;;4.53;;
61681;SDS011;47577;43.610;25.010;2022-08-21T09:28:33;9.70;;;4.82;;
61681;SDS011;47577;43.610;25.010;2022-08-21T09:31:00;9.38;;;4.63;;
61681;SDS011;47577;43.610;25.010;2022-08-21T09:33:47;6.28;;;4.90;;
61681;SDS011;47577;43.610;25.010;2022-08-21T09:36:22;10.97;;;5.00;;
61681;SDS011;47577;43.610;25.010;2022-08-21T09:38:57;8.40;;;4.57;;
61681;SDS011;47577;43.610;25.010;2022-08-21T09:41:29;10.02;;;4.90;;
61681;SDS011;47577;43.610;25.010;2022-08-21T09:43:56;10.25;;;5.10;;
61681;SDS011;47577;43.610;25.010;2022-08-21T09:46:24;6.57;;;4.63;;
61681;SDS011;47577;43.610;25.010;2022-08-21T09:48:55;7.00;;;5.05;;
61681;SDS011;47577;43.610;25.010;2022-08-21T09:51:29;7.85;;;4.28;;
61681;SDS011;47577;43.610;25.010;2022-08-21T09:53:58;6.32;;;4.38;;
61681;SDS011;47577;43.610;25.010;2022-08-21T09:56:39;6.03;;;4.72;;
61681;SDS011;47577;43.610;25.010;2022-08-21T09:59:39;6.75;;;4.60;;
61681;SDS011;47577;43.610;25.010;2022-08-21T10:04:57;9.07;;;5.05;;
61681;SDS011;47577;43.610;25.010;2022-08-21T10:07:40;14.27;;;5.18;;
61681;SDS011;47577;43.610;25.010;2022-08-21T10:10:08;48.97;;;24.03;;
61681;SDS011;47577;43.610;25.010;2022-08-21T10:18:12;66.18;;;33.83;;
61681;SDS011;47577;43.610;25.010;2022-08-21T10:21:01;36.58;;;18.27;;
61681;SDS011;47577;43.610;25.010;2022-08-21T10:39:13;9.48;;;5.82;;
61681;SDS011;47577;43.610;25.010;2022-08-21T10:47:11;11.95;;;6.78;;
61681;SDS011;47577;43.610;25.010;2022-08-21T10:50:02;9.00;;;6.35;;
61681;SDS011;47577;43.610;25.010;2022-08-21T10:55:12;8.48;;;6.70;;
61681;SDS011;47577;43.610;25.010;2022-08-21T11:00:16;20.85;;;15.40;;
61681;SDS011;47577;43.610;25.010;2022-08-21T11:05:35;7.47;;;6.10;;
61681;SDS011;47577;43.610;25.010;2022-08-21T11:08:12;9.95;;;6.32;;
61681;SDS011;47577;43.610;25.010;2022-08-21T11:25:00;8.90;;;7.95;;
61681;SDS011;47577;43.610;25.010;2022-08-21T11:27:41;12.48;;;7.30;;
61681;SDS011;47577;43.610;25.010;2022-08-21T11:30:08;13.70;;;8.25;;
61681;SDS011;47577;43.610;25.010;2022-08-21T11:32:47;9.07;;;7.63;;
61681;SDS011;47577;43.610;25.010;2022-08-21T11:43:28;8.98;;;8.05;;
61681;SDS011;47577;43.610;25.010;2022-08-21T11:46:28;10.45;;;7.25;;
61681;SDS011;47577;43.610;25.010;2022-08-21T11:59:53;8.75;;;7.50;;
61681;SDS011;47577;43.610;25.010;2022-08-21T12:02:29;11.63;;;7.88;;
61681;SDS011;47577;43.610;25.010;2022-08-21T12:05:00;12.00;;;7.88;;
61681;SDS011;47577;43.610;25.010;2022-08-21T12:10:04;12.65;;;8.30;;
61681;SDS011;47577;43.610;25.010;2022-08-21T12:12:33;13.77;;;8.57;;
61681;SDS011;47577;43.610;25.010;2022-08-21T12:17:58;12.00;;;8.38;;
61681;SDS011;47577;43.610;25.010;2022-08-21T12:21:04;10.65;;;7.55;;
61681;SDS011;47577;43.610;25.010;2022-08-21T12:23:43;8.55;;;6.65;;
61681;SDS011;47577;43.610;25.010;2022-08-21T12:26:25;11.40;;;7.65;;
61681;SDS011;47577;43.610;25.010;2022-08-21T12:29:21;11.63;;;6.30;;
61681;SDS011;47577;43.610;25.010;2022-08-21T12:32:01;7.65;;;6.85;;
61681;SDS011;47577;43.610;25.010;2022-08-21T12:34:35;9.05;;;7.28;;
61681;SDS011;47577;43.610;25.010;2022-08-21T12:37:09;10.05;;;7.50;;
61681;SDS011;47577;43.610;25.010;2022-08-21T12:39:47;11.55;;;7.68;;
61681;SDS011;47577;43.610;25.010;2022-08-21T12:42:20;12.27;;;7.70;;
61681;SDS011;47577;43.610;25.010;2022-08-21T12:44:55;10.27;;;6.78;;
61681;SDS011;47577;43.610;25.010;2022-08-21T12:47:32;8.50;;;7.28;;
61681;SDS011;47577;43.610;25.010;2022-08-21T12:50:09;8.77;;;6.45;;
61681;SDS011;47577;43.610;25.010;2022-08-21T12:55:15;9.45;;;6.55;;
61681;SDS011;47577;43.610;25.010;2022-08-21T12:57:52;7.30;;;6.10;;
61681;SDS011;47577;43.610;25.010;2022-08-21T13:00:20;7.10;;;6.40;;
61681;SDS011;47577;43.610;25.010;2022-08-21T13:02:49;10.07;;;6.43;;
61681;SDS011;47577;43.610;25.010;2022-08-21T13:05:23;9.98;;;6.40;;
61681;SDS011;47577;43.610;25.010;2022-08-21T13:07:50;10.15;;;6.88;;
61681;SDS011;47577;43.610;25.010;2022-08-21T13:10:20;10.03;;;6.53;;
61681;SDS011;47577;43.610;25.010;2022-08-21T13:12:49;8.27;;;6.13;;
61681;SDS011;47577;43.610;25.010;2022-08-21T13:15:22;9.27;;;6.15;;
61681;SDS011;47577;43.610;25.010;2022-08-21T13:17:54;10.35;;;6.05;;
61681;SDS011;47577;43.610;25.010;2022-08-21T13:20:24;7.77;;;5.87;;
61681;SDS011;47577;43.610;25.010;2022-08-21T13:22:52;10.48;;;6.90;;
61681;SDS011;47577;43.610;25.010;2022-08-21T13:25:20;9.50;;;6.40;;
61681;SDS011;47577;43.610;25.010;2022-08-21T13:27:58;9.07;;;5.75;;
61681;SDS011;47577;43.610;25.010;2022-08-21T13:30:31;8.23;;;5.93;;
61681;SDS011;47577;43.610;25.010;2022-08-21T13:32:58;13.93;;;6.13;;
61681;SDS011;47577;43.610;25.010;2022-08-21T13:38:16;10.30;;;6.38;;
61681;SDS011;47577;43.610;25.010;2022-08-21T13:40:46;8.90;;;6.00;;
61681;SDS011;47577;43.610;25.010;2022-08-21T13:43:20;9.98;;;6.40;;
61681;SDS011;47577;43.610;25.010;2022-08-21T13:45:52;11.45;;;7.07;;
61681;SDS011;47577;43.610;25.010;2022-08-21T13:48:19;8.10;;;6.05;;
61681;SDS011;47577;43.610;25.010;2022-08-21T13:50:46;8.75;;;7.28;;
61681;SDS011;47577;43.610;25.010;2022-08-21T13:53:21;8.17;;;6.30;;
61681;SDS011;47577;43.610;25.010;2022-08-21T13:55:47;10.68;;;6.72;;
61681;SDS011;47577;43.610;25.010;2022-08-21T13:58:13;9.17;;;6.57;;
61681;SDS011;47577;43.610;25.010;2022-08-21T14:04:00;11.15;;;6.28;;
61681;SDS011;47577;43.610;25.010;2022-08-21T14:06:41;8.75;;;6.90;;
61681;SDS011;47577;43.610;25.010;2022-08-21T14:09:21;8.53;;;6.53;;
61681;SDS011;47577;43.610;25.010;2022-08-21T14:11:53;9.90;;;6.20;;
61681;SDS011;47577;43.610;25.010;2022-08-21T14:14:29;8.57;;;6.30;;
61681;SDS011;47577;43.610;25.010;2022-08-21T14:16:59;9.65;;;6.13;;
61681;SDS011;47577;43.610;25.010;2022-08-21T14:19:28;8.93;;;6.22;;
61681;SDS011;47577;43.610;25.010;2022-08-21T14:22:21;8.68;;;5.90;;
61681;SDS011;47577;43.610;25.010;2022-08-21T14:25:10;8.20;;;5.85;;
61681;SDS011;47577;43.610;25.010;2022-08-21T14:30:21;6.93;;;5.82;;
61681;SDS011;47577;43.610;25.010;2022-08-21T14:32:55;7.07;;;5.38;;
61681;SDS011;47577;43.610;25.010;2022-08-21T14:35:20;10.83;;;6.27;;
61681;SDS011;47577;43.610;25.010;2022-08-21T14:37:47;9.07;;;6.57;;
61681;SDS011;47577;43.610;25.010;2022-08-21T14:40:15;5.85;;;5.15;;
61681;SDS011;47577;43.610;25.010;2022-08-21T14:42:45;8.25;;;5.93;;
61681;SDS011;47577;43.610;25.010;2022-08-21T14:45:18;7.85;;;5.80;;
61681;SDS011;47577;43.610;25.010;2022-08-21T14:47:55;7.35;;;6.22;;
61681;SDS011;47577;43.610;25.010;2022-08-21T14:52:47;10.70;;;6.30;;
61681;SDS011;47577;43.610;25.010;2022-08-21T14:55:14;9.90;;;6.23;;
61681;SDS011;47577;43.610;25.010;2022-08-21T14:57:50;9.82;;;7.05;;
61681;SDS011;47577;43.610;25.010;2022-08-21T15:00:18;8.20;;;6.28;;
61681;SDS011;47577;43.610;25.010;2022-08-21T15:02:47;11.60;;;7.05;;
61681;SDS011;47577;43.610;25.010;2022-08-21T15:05:13;8.50;;;6.27;;
61681;SDS011;47577;43.610;25.010;2022-08-21T15:07:39;12.93;;;7.40;;
61681;SDS011;47577;43.610;25.010;2022-08-21T15:10:05;8.57;;;6.43;;
61681;SDS011;47577;43.610;25.010;2022-08-21T15:12:31;9.98;;;6.65;;
61681;SDS011;47577;43.610;25.010;2022-08-21T15:14:58;12.02;;;6.80;;
61681;SDS011;47577;43.610;25.010;2022-08-21T15:17:23;10.27;;;7.23;;
61681;SDS011;47577;43.610;25.010;2022-08-21T15:19:49;7.53;;;5.90;;
61681;SDS011;47577;43.610;25.010;2022-08-21T15:22:15;6.43;;;5.77;;
61681;SDS011;47577;43.610;25.010;2022-08-21T15:24:41;10.90;;;6.60;;
61681;SDS011;47577;43.610;25.010;2022-08-21T15:27:07;8.43;;;6.33;;
61681;SDS011;47577;43.610;25.010;2022-08-21T15:29:34;11.13;;;6.05;;
61681;SDS011;47577;43.610;25.010;2022-08-21T15:32:02;8.75;;;6.40;;
61681;SDS011;47577;43.610;25.010;2022-08-21T15:34:41;9.45;;;6.18;;
61681;SDS011;47577;43.610;25.010;2022-08-21T15:37:07;12.53;;;6.67;;
61681;SDS011;47577;43.610;25.010;2022-08-21T15:39:33;13.07;;;8.30;;
61681;SDS011;47577;43.610;25.010;2022-08-21T15:41:59;8.73;;;5.82;;
61681;SDS011;47577;43.610;25.010;2022-08-21T15:44:25;8.70;;;6.00;;
61681;SDS011;47577;43.610;25.010;2022-08-21T15:46:53;6.25;;;5.63;;
61681;SDS011;47577;43.610;25.010;2022-08-21T15:49:19;9.07;;;6.47;;
61681;SDS011;47577;43.610;25.010;2022-08-21T15:51:45;12.57;;;8.40;;
61681;SDS011;47577;43.610;25.010;2022-08-21T15:54:10;15.50;;;7.03;;
61681;SDS011;47577;43.610;25.010;2022-08-21T15:56:37;10.37;;;6.30;;
61681;SDS011;47577;43.610;25.010;2022-08-21T15:59:15;12.43;;;6.18;;
61681;SDS011;47577;43.610;25.010;2022-08-21T16:01:43;14.38;;;7.95;;
61681;SDS011;47577;43.610;25.010;2022-08-21T16:04:10;18.73;;;10.77;;
61681;SDS011;47577;43.610;25.010;2022-08-21T16:06:43;14.88;;;7.13;;
61681;SDS011;47577;43.610;25.010;2022-08-21T16:09:09;9.77;;;5.53;;
61681;SDS011;47577;43.610;25.010;2022-08-21T16:11:34;9.50;;;6.43;;
61681;SDS011;47577;43.610;25.010;2022-08-21T16:14:00;7.97;;;6.20;;
61681;SDS011;47577;43.610;25.010;2022-08-21T16:16:26;8.27;;;5.67;;
61681;SDS011;47577;43.610;25.010;2022-08-21T16:18:56;8.23;;;5.90;;
61681;SDS011;47577;43.610;25.010;2022-08-21T16:21:22;11.10;;;6.07;;
61681;SDS011;47577;43.610;25.010;2022-08-21T16:23:48;7.83;;;5.57;;
61681;SDS011;47577;43.610;25.010;2022-08-21T16:26:14;9.00;;;5.47;;
61681;SDS011;47577;43.610;25.010;2022-08-21T16:28:41;7.00;;;5.75;;
61681;SDS011;47577;43.610;25.010;2022-08-21T16:31:10;14.95;;;8.27;;
61681;SDS011;47577;43.610;25.010;2022-08-21T16:33:39;24.08;;;10.88;;
61681;SDS011;47577;43.610;25.010;2022-08-21T16:36:07;23.10;;;11.38;;
61681;SDS011;47577;43.610;25.010;2022-08-21T16:38:34;36.60;;;21.85;;
61681;SDS011;47577;43.610;25.010;2022-08-21T16:41:06;12.02;;;9.15;;
61681;SDS011;47577;43.610;25.010;2022-08-21T16:43:35;12.30;;;6.22;;
61681;SDS011;47577;43.610;25.010;2022-08-21T16:46:02;29.95;;;13.50;;
61681;SDS011;47577;43.610;25.010;2022-08-21T16:48:28;22.90;;;14.50;;
61681;SDS011;47577;43.610;25.010;2022-08-21T16:50:55;19.27;;;10.60;;